createdAt,value
2019-01-19T00:00:07.294Z,8.70
2019-01-19T00:01:07.282Z,9.20
2019-01-19T00:02:07.271Z,9.10
2019-01-19T00:03:07.261Z,7.30
2019-01-19T00:04:07.269Z,7.10
2019-01-19T00:05:10.503Z,9.60
2019-01-19T00:06:07.224Z,7.60
2019-01-19T00:07:07.216Z,8.20
2019-01-19T00:08:07.202Z,9.00
2019-01-19T00:09:07.196Z,6.50
2019-01-19T00:10:07.182Z,7.30
2019-01-19T00:11:07.171Z,6.80
2019-01-19T00:12:07.159Z,7.10
2019-01-19T00:13:07.147Z,6.60
2019-01-19T00:14:07.136Z,8.10
2019-01-19T00:15:07.127Z,5.80
2019-01-19T00:16:07.114Z,7.30
2019-01-19T00:17:07.103Z,6.70
2019-01-19T00:18:07.094Z,7.00
2019-01-19T00:19:07.081Z,11.20
2019-01-19T00:20:07.069Z,10.90
2019-01-19T00:21:07.060Z,6.40
2019-01-19T00:22:07.048Z,8.90
2019-01-19T00:23:07.036Z,8.10
2019-01-19T00:24:07.024Z,7.10
2019-01-19T00:25:07.015Z,7.80
2019-01-19T00:26:07.004Z,8.10
2019-01-19T00:27:06.995Z,6.80
2019-01-19T00:28:06.979Z,11.40
2019-01-19T00:29:06.970Z,8.10
2019-01-19T00:30:06.959Z,7.60
2019-01-19T00:31:06.948Z,8.30
2019-01-19T00:32:06.936Z,7.40
2019-01-19T00:33:06.928Z,8.40
2019-01-19T00:34:06.911Z,6.80
2019-01-19T00:35:06.902Z,6.80
2019-01-19T00:36:06.891Z,7.50
2019-01-19T00:37:06.879Z,7.20
2019-01-19T00:38:06.870Z,7.90
2019-01-19T00:39:06.858Z,8.60
2019-01-19T00:40:06.847Z,7.80
2019-01-19T00:41:06.836Z,7.90
2019-01-19T00:42:06.827Z,6.30
2019-01-19T00:43:06.815Z,8.00
2019-01-19T00:44:06.802Z,6.80
2019-01-19T00:45:06.790Z,6.80
2019-01-19T00:46:06.779Z,7.00
2019-01-19T00:47:06.769Z,6.10
2019-01-19T00:48:06.757Z,9.30
2019-01-19T00:49:06.747Z,6.70
2019-01-19T00:50:06.736Z,7.90
2019-01-19T00:51:06.725Z,7.70
2019-01-19T00:52:06.711Z,8.60
2019-01-19T00:53:06.704Z,7.70
2019-01-19T00:54:06.689Z,8.10
2019-01-19T00:55:06.679Z,6.90
2019-01-19T00:56:06.670Z,7.30
2019-01-19T00:57:06.657Z,7.40
2019-01-19T00:58:06.646Z,7.30
2019-01-19T00:59:06.637Z,6.70
2019-01-19T01:00:06.625Z,7.40
2019-01-19T01:01:06.613Z,6.80
2019-01-19T01:02:06.604Z,7.70
2019-01-19T01:03:06.590Z,8.50
2019-01-19T01:04:06.582Z,7.40
2019-01-19T01:05:06.568Z,8.80
2019-01-19T01:06:06.556Z,7.50
2019-01-19T01:07:06.547Z,8.00
2019-01-19T01:08:06.535Z,9.80
2019-01-19T01:09:06.523Z,6.10
2019-01-19T01:10:06.517Z,7.80
2019-01-19T01:11:06.508Z,7.50
2019-01-19T01:12:06.491Z,6.20
2019-01-19T01:13:06.480Z,7.60
2019-01-19T01:14:06.469Z,8.90
2019-01-19T01:15:06.459Z,8.20
2019-01-19T01:16:06.447Z,9.10
2019-01-19T01:17:06.438Z,8.00
2019-01-19T01:18:06.433Z,7.10
2019-01-19T01:19:06.413Z,7.10
2019-01-19T01:20:06.402Z,7.70
2019-01-19T01:21:06.392Z,7.30
2019-01-19T01:22:06.442Z,7.50
2019-01-19T01:23:06.370Z,7.70
2019-01-19T01:24:06.360Z,8.80
2019-01-19T01:25:06.348Z,7.70
2019-01-19T01:26:06.338Z,7.80
2019-01-19T01:27:06.358Z,9.70
2019-01-19T01:28:06.317Z,7.90
2019-01-19T01:29:06.305Z,6.70
2019-01-19T01:30:06.295Z,7.90
2019-01-19T01:31:06.283Z,7.60
2019-01-19T01:32:06.271Z,7.30
2019-01-19T01:33:06.262Z,9.20
2019-01-19T01:34:06.249Z,7.30
2019-01-19T01:35:06.240Z,8.00
2019-01-19T01:36:06.232Z,6.00
2019-01-19T01:37:06.217Z,7.70
2019-01-19T01:38:06.206Z,7.00
2019-01-19T01:39:06.193Z,7.10
2019-01-19T01:40:06.183Z,7.20
2019-01-19T01:41:06.174Z,9.00
2019-01-19T01:42:06.163Z,8.40
2019-01-19T01:43:06.152Z,9.00
2019-01-19T01:44:06.141Z,7.00
2019-01-19T01:45:06.129Z,8.90
2019-01-19T01:46:06.119Z,7.60
2019-01-19T01:47:06.108Z,7.60
2019-01-19T01:48:06.099Z,8.60
2019-01-19T01:49:06.090Z,8.20
2019-01-19T01:50:06.076Z,8.10
2019-01-19T01:51:06.068Z,8.60
2019-01-19T01:52:06.061Z,9.40
2019-01-19T01:53:06.044Z,9.10
2019-01-19T01:54:06.037Z,7.20
2019-01-19T01:55:06.023Z,8.80
2019-01-19T01:56:06.011Z,7.60
2019-01-19T01:57:06.000Z,9.90
2019-01-19T01:58:05.990Z,8.60
2019-01-19T01:59:05.981Z,10.30
2019-01-19T02:00:05.963Z,7.60
2019-01-19T02:01:05.957Z,8.20
2019-01-19T02:02:05.948Z,8.70
2019-01-19T02:03:05.934Z,8.40
2019-01-19T02:04:05.924Z,7.60
2019-01-19T02:05:05.913Z,9.00
2019-01-19T02:06:05.903Z,7.70
2019-01-19T02:07:05.929Z,8.90
2019-01-19T02:08:05.882Z,9.10
2019-01-19T02:09:05.871Z,7.20
2019-01-19T02:10:05.859Z,6.80
2019-01-19T02:11:05.849Z,9.00
2019-01-19T02:12:05.837Z,6.50
2019-01-19T02:13:05.826Z,9.10
2019-01-19T02:14:05.817Z,8.50
2019-01-19T02:15:05.807Z,7.10
2019-01-19T02:16:05.795Z,10.00
2019-01-19T02:17:05.783Z,8.60
2019-01-19T02:18:05.776Z,7.80
2019-01-19T02:19:05.762Z,8.90
2019-01-19T02:20:05.753Z,11.00
2019-01-19T02:21:05.739Z,7.90
2019-01-19T02:22:05.730Z,7.90
2019-01-19T02:23:05.718Z,8.10
2019-01-19T02:24:05.708Z,8.20
2019-01-19T02:25:05.696Z,8.40
2019-01-19T02:26:05.688Z,7.90
2019-01-19T02:27:05.671Z,8.40
2019-01-19T02:28:05.716Z,10.80
2019-01-19T02:29:05.642Z,9.80
2019-01-19T02:30:05.652Z,7.50
2019-01-19T02:31:05.635Z,8.70
2019-01-19T02:32:05.618Z,6.70
2019-01-19T02:33:05.607Z,8.50
2019-01-19T02:34:05.598Z,8.60
2019-01-19T02:35:05.587Z,9.70
2019-01-19T02:36:05.603Z,8.70
2019-01-19T02:37:05.566Z,9.20
2019-01-19T02:38:05.555Z,9.00
2019-01-19T02:39:05.544Z,8.30
2019-01-19T02:40:05.533Z,8.20
2019-01-19T02:41:05.525Z,8.00
2019-01-19T02:42:05.510Z,8.40
2019-01-19T02:43:05.499Z,7.60
2019-01-19T02:44:05.488Z,8.00
2019-01-19T02:45:05.474Z,9.20
2019-01-19T02:46:05.466Z,7.80
2019-01-19T02:47:05.458Z,9.90
2019-01-19T02:48:05.443Z,9.00
2019-01-19T02:49:05.431Z,8.70
2019-01-19T02:50:05.424Z,7.50
2019-01-19T02:51:05.410Z,10.20
2019-01-19T02:52:05.398Z,8.80
2019-01-19T02:53:05.392Z,8.20
2019-01-19T02:54:05.377Z,10.20
2019-01-19T02:55:06.217Z,9.30
2019-01-19T02:56:05.355Z,10.10
2019-01-19T02:57:05.342Z,8.10
2019-01-19T02:58:05.334Z,11.60
2019-01-19T02:59:05.321Z,10.40
2019-01-19T03:00:05.310Z,7.40
2019-01-19T03:01:05.300Z,10.20
2019-01-19T03:02:05.288Z,9.90
2019-01-19T03:03:05.278Z,8.80
2019-01-19T03:04:05.265Z,8.80
2019-01-19T03:05:05.256Z,10.10
2019-01-19T03:06:05.243Z,8.60
2019-01-19T03:07:05.239Z,9.60
2019-01-19T03:08:05.221Z,7.60
2019-01-19T03:09:05.217Z,10.30
2019-01-19T03:10:05.202Z,11.20
2019-01-19T03:11:05.188Z,9.70
2019-01-19T03:12:05.176Z,9.80
2019-01-19T03:13:05.166Z,8.40
2019-01-19T03:14:05.152Z,6.90
2019-01-19T03:15:05.141Z,11.50
2019-01-19T03:16:05.133Z,8.20
2019-01-19T03:17:05.119Z,10.30
2019-01-19T03:18:05.110Z,8.80
2019-01-19T03:19:05.100Z,9.00
2019-01-19T03:20:05.086Z,10.20
2019-01-19T03:21:05.073Z,6.60
2019-01-19T03:22:05.063Z,8.30
2019-01-19T03:23:05.055Z,10.30
2019-01-19T03:24:05.150Z,8.80
2019-01-19T03:25:05.030Z,9.40
2019-01-19T03:26:05.017Z,8.20
2019-01-19T03:27:05.007Z,10.40
2019-01-19T03:28:04.996Z,10.20
2019-01-19T03:29:04.988Z,7.30
2019-01-19T03:30:04.973Z,8.70
2019-01-19T03:31:04.964Z,8.10
2019-01-19T03:32:04.962Z,9.10
2019-01-19T03:33:04.939Z,11.20
2019-01-19T03:34:04.936Z,10.40
2019-01-19T03:35:04.915Z,8.40
2019-01-19T03:36:04.906Z,9.00
2019-01-19T03:37:04.892Z,10.20
2019-01-19T03:38:04.883Z,9.90
2019-01-19T03:39:04.869Z,10.40
2019-01-19T03:40:04.856Z,9.90
2019-01-19T03:41:04.854Z,12.50
2019-01-19T03:42:04.839Z,9.40
2019-01-19T03:43:04.822Z,10.40
2019-01-19T03:44:04.813Z,10.60
2019-01-19T03:45:04.807Z,9.10
2019-01-19T03:46:04.795Z,10.90
2019-01-19T03:47:04.779Z,11.80
2019-01-19T03:48:04.765Z,9.80
2019-01-19T03:49:04.755Z,8.40
2019-01-19T03:50:04.744Z,10.30
2019-01-19T03:51:04.732Z,9.00
2019-01-19T03:52:04.721Z,9.90
2019-01-19T03:53:04.707Z,9.70
2019-01-19T03:54:04.696Z,8.50
2019-01-19T03:55:04.685Z,11.30
2019-01-19T03:56:04.690Z,10.50
2019-01-19T03:57:04.661Z,10.60
2019-01-19T03:58:04.641Z,10.90
2019-01-19T03:59:04.640Z,10.60
2019-01-19T04:00:04.627Z,12.10
2019-01-19T04:01:04.616Z,11.20
2019-01-19T04:02:04.612Z,9.20
2019-01-19T04:03:04.592Z,12.80
2019-01-19T04:04:04.581Z,10.20
2019-01-19T04:05:04.569Z,11.30
2019-01-19T04:06:12.424Z,10.70
2019-01-19T04:07:04.544Z,10.70
2019-01-19T04:08:04.539Z,10.30
2019-01-19T04:09:04.523Z,11.60
2019-01-19T04:10:04.511Z,12.40
2019-01-19T04:11:04.503Z,11.10
2019-01-19T04:12:04.485Z,10.60
2019-01-19T04:13:04.473Z,9.90
2019-01-19T04:14:04.462Z,10.10
2019-01-19T04:15:04.454Z,11.80
2019-01-19T04:16:04.440Z,10.90
2019-01-19T04:17:04.426Z,11.30
2019-01-19T04:18:04.413Z,12.20
2019-01-19T04:19:04.404Z,8.90
2019-01-19T04:20:04.391Z,11.00
2019-01-19T04:21:04.386Z,11.40
2019-01-19T04:22:04.371Z,11.20
2019-01-19T04:23:04.354Z,12.20
2019-01-19T04:24:04.346Z,11.60
2019-01-19T04:25:04.333Z,13.00
2019-01-19T04:26:04.325Z,11.10
2019-01-19T04:27:04.308Z,11.60
2019-01-19T04:28:04.294Z,11.60
2019-01-19T04:29:04.284Z,12.80
2019-01-19T04:30:04.273Z,12.00
2019-01-19T04:31:04.262Z,10.00
2019-01-19T04:32:04.257Z,10.70
2019-01-19T04:33:04.235Z,9.90
2019-01-19T04:34:04.223Z,10.20
2019-01-19T04:35:04.215Z,9.80
2019-01-19T04:36:04.200Z,10.10
2019-01-19T04:37:04.194Z,11.50
2019-01-19T04:38:04.181Z,9.20
2019-01-19T04:39:04.168Z,10.70
2019-01-19T04:40:04.154Z,10.80
2019-01-19T04:41:04.143Z,13.70
2019-01-19T04:42:04.135Z,9.60
2019-01-19T04:43:04.118Z,9.30
2019-01-19T04:44:04.106Z,12.20
2019-01-19T04:45:04.094Z,8.90
2019-01-19T04:46:04.082Z,10.30
2019-01-19T04:47:04.069Z,11.20
2019-01-19T04:48:04.057Z,10.40
2019-01-19T04:49:04.043Z,9.60
2019-01-19T04:50:04.034Z,8.70
2019-01-19T04:51:04.023Z,10.00
2019-01-19T04:52:04.014Z,11.40
2019-01-19T04:53:04.000Z,9.70
2019-01-19T04:54:03.986Z,10.30
2019-01-19T04:55:03.977Z,9.00
2019-01-19T04:56:03.964Z,9.50
2019-01-19T04:57:03.951Z,11.90
2019-01-19T04:58:03.939Z,9.70
2019-01-19T04:59:03.930Z,11.40
2019-01-19T05:00:03.916Z,10.00
2019-01-19T05:01:03.906Z,8.70
2019-01-19T05:02:03.893Z,11.40
2019-01-19T05:03:03.884Z,10.80
2019-01-19T05:04:03.870Z,8.90
2019-01-19T05:05:03.857Z,12.50
2019-01-19T05:06:11.681Z,10.70
2019-01-19T05:07:03.835Z,10.10
2019-01-19T05:08:03.820Z,11.80
2019-01-19T05:09:03.810Z,10.00
2019-01-19T05:10:03.803Z,10.00
2019-01-19T05:11:03.791Z,12.10
2019-01-19T05:12:03.784Z,9.70
2019-01-19T05:13:03.771Z,11.30
2019-01-19T05:14:03.751Z,10.60
2019-01-19T05:15:03.740Z,9.40
2019-01-19T05:16:03.736Z,10.50
2019-01-19T05:17:03.720Z,10.90
2019-01-19T05:18:03.706Z,10.50
2019-01-19T05:19:03.698Z,10.70
2019-01-19T05:20:03.680Z,9.90
2019-01-19T05:21:03.669Z,9.80
2019-01-19T05:22:03.681Z,11.30
2019-01-19T05:23:03.648Z,12.20
2019-01-19T05:24:03.635Z,11.30
2019-01-19T05:25:03.625Z,10.90
2019-01-19T05:26:03.615Z,11.40
2019-01-19T05:27:03.599Z,10.90
2019-01-19T05:28:03.598Z,10.20
2019-01-19T05:29:03.579Z,11.60
2019-01-19T05:30:03.568Z,13.40
2019-01-19T05:31:03.552Z,9.80
2019-01-19T05:32:03.542Z,10.90
2019-01-19T05:33:03.531Z,10.50
2019-01-19T05:34:03.515Z,12.60
2019-01-19T05:35:03.501Z,11.60
2019-01-19T05:36:03.490Z,11.90
2019-01-19T05:37:03.478Z,12.00
2019-01-19T05:38:03.478Z,12.70
2019-01-19T05:39:03.457Z,13.00
2019-01-19T05:40:03.444Z,11.20
2019-01-19T05:41:03.434Z,12.40
2019-01-19T05:42:03.421Z,12.30
2019-01-19T05:43:03.415Z,12.40
2019-01-19T05:44:03.395Z,12.50
2019-01-19T05:45:03.386Z,14.30
2019-01-19T05:46:03.374Z,12.50
2019-01-19T05:47:03.370Z,14.00
2019-01-19T05:48:03.352Z,13.70
2019-01-19T05:49:03.340Z,13.90
2019-01-19T05:50:03.326Z,12.80
2019-01-19T05:51:03.322Z,13.40
2019-01-19T05:52:03.301Z,11.60
2019-01-19T05:53:03.288Z,13.90
2019-01-19T05:54:03.280Z,12.00
2019-01-19T05:55:03.268Z,11.30
2019-01-19T05:56:03.257Z,14.30
2019-01-19T05:57:03.243Z,12.10
2019-01-19T05:58:03.229Z,12.20
2019-01-19T05:59:03.218Z,11.80
2019-01-19T06:00:03.204Z,13.60
2019-01-19T06:01:03.193Z,15.30
2019-01-19T06:02:03.186Z,15.00
2019-01-19T06:03:03.172Z,12.80
2019-01-19T06:04:03.159Z,11.10
2019-01-19T06:05:03.153Z,13.20
2019-01-19T06:06:03.144Z,12.50
2019-01-19T06:07:03.125Z,11.70
2019-01-19T06:08:03.109Z,11.00
2019-01-19T06:09:03.098Z,11.80
2019-01-19T06:10:03.084Z,9.50
2019-01-19T06:11:03.069Z,10.10
2019-01-19T06:12:03.067Z,13.90
2019-01-19T06:13:03.053Z,10.90
2019-01-19T06:14:03.040Z,12.10
2019-01-19T06:15:03.026Z,13.30
2019-01-19T06:16:03.018Z,12.20
2019-01-19T06:17:02.999Z,11.30
2019-01-19T06:18:02.991Z,10.70
2019-01-19T06:19:02.982Z,13.40
2019-01-19T06:20:02.963Z,10.90
2019-01-19T06:21:02.955Z,11.80
2019-01-19T06:22:02.939Z,12.50
2019-01-19T06:23:02.923Z,15.40
2019-01-19T06:24:02.912Z,11.50
2019-01-19T06:25:02.904Z,10.90
2019-01-19T06:26:02.891Z,10.70
2019-01-19T06:27:02.883Z,9.30
2019-01-19T06:28:02.866Z,11.00
2019-01-19T06:29:02.855Z,10.40
2019-01-19T06:30:02.844Z,11.50
2019-01-19T06:31:02.846Z,11.90
2019-01-19T06:32:02.822Z,11.30
2019-01-19T06:33:02.818Z,12.40
2019-01-19T06:34:02.796Z,13.20
2019-01-19T06:35:02.788Z,12.90
2019-01-19T06:36:02.777Z,11.60
2019-01-19T06:37:04.311Z,9.60
2019-01-19T06:38:02.760Z,14.80
2019-01-19T06:39:02.737Z,12.40
2019-01-19T06:40:02.727Z,12.10
2019-01-19T06:41:02.718Z,12.80
2019-01-19T06:42:02.701Z,10.30
2019-01-19T06:43:02.692Z,13.30
2019-01-19T06:44:02.679Z,12.70
2019-01-19T06:45:02.668Z,10.30
2019-01-19T06:46:02.656Z,10.90
2019-01-19T06:47:02.640Z,10.40
2019-01-19T06:48:02.630Z,11.70
2019-01-19T06:49:02.642Z,12.30
2019-01-19T06:50:02.610Z,10.80
2019-01-19T06:51:02.595Z,10.60
2019-01-19T06:52:02.586Z,11.10
2019-01-19T06:53:02.571Z,12.80
2019-01-19T06:54:02.560Z,13.20
2019-01-19T06:55:02.548Z,11.20
2019-01-19T06:56:02.537Z,11.50
2019-01-19T06:57:02.520Z,12.20
2019-01-19T06:58:02.511Z,11.90
2019-01-19T06:59:02.499Z,10.70
2019-01-19T07:00:02.489Z,13.90
2019-01-19T07:01:02.476Z,12.50
2019-01-19T07:02:02.465Z,13.30
2019-01-19T07:03:02.451Z,13.50
2019-01-19T07:04:02.445Z,11.50
2019-01-19T07:05:02.434Z,12.50
2019-01-19T07:06:02.420Z,14.50
2019-01-19T07:07:03.062Z,14.30
2019-01-19T07:08:02.390Z,13.90
2019-01-19T07:09:02.384Z,14.50
2019-01-19T07:10:02.369Z,13.10
2019-01-19T07:11:02.359Z,12.60
2019-01-19T07:12:02.353Z,12.70
2019-01-19T07:13:02.336Z,13.40
2019-01-19T07:14:02.323Z,13.40
2019-01-19T07:15:02.317Z,15.30
2019-01-19T07:16:02.307Z,12.80
2019-01-19T07:17:02.297Z,12.70
2019-01-19T07:18:02.289Z,13.40
2019-01-19T07:19:02.273Z,12.90
2019-01-19T07:20:02.253Z,13.70
2019-01-19T07:21:02.242Z,15.30
2019-01-19T07:22:02.230Z,13.40
2019-01-19T07:23:02.220Z,14.90
2019-01-19T07:24:02.211Z,15.00
2019-01-19T07:25:02.195Z,13.10
2019-01-19T07:26:02.190Z,14.70
2019-01-19T07:27:02.173Z,13.80
2019-01-19T07:28:02.162Z,13.80
2019-01-19T07:29:02.151Z,17.00
2019-01-19T07:30:02.140Z,16.40
2019-01-19T07:31:02.125Z,15.60
2019-01-19T07:32:02.114Z,19.10
2019-01-19T07:33:02.101Z,15.80
2019-01-19T07:34:02.089Z,15.60
2019-01-19T07:35:02.081Z,15.70
2019-01-19T07:36:02.063Z,17.10
2019-01-19T07:37:02.126Z,15.80
2019-01-19T07:38:02.042Z,17.60
2019-01-19T07:39:02.033Z,16.00
2019-01-19T07:40:02.020Z,15.20
2019-01-19T07:41:02.006Z,18.70
2019-01-19T07:42:01.994Z,15.90
2019-01-19T07:43:01.987Z,14.90
2019-01-19T07:44:01.970Z,16.30
2019-01-19T07:45:01.969Z,17.50
2019-01-19T07:46:01.949Z,17.20
2019-01-19T07:47:01.937Z,16.60
2019-01-19T07:48:01.921Z,15.50
2019-01-19T07:49:01.910Z,19.00
2019-01-19T07:50:01.910Z,16.30
2019-01-19T07:51:01.895Z,15.90
2019-01-19T07:52:01.877Z,19.50
2019-01-19T07:53:01.863Z,20.70
2019-01-19T07:54:01.854Z,19.30
2019-01-19T07:55:01.845Z,16.80
2019-01-19T07:56:01.826Z,19.90
2019-01-19T07:57:01.815Z,19.00
2019-01-19T07:58:01.804Z,20.90
2019-01-19T07:59:01.795Z,18.20
2019-01-19T08:00:01.781Z,17.00
2019-01-19T08:01:01.772Z,18.20
2019-01-19T08:02:02.524Z,17.50
2019-01-19T08:03:01.750Z,17.60
2019-01-19T08:04:01.732Z,18.90
2019-01-19T08:05:01.713Z,20.10
2019-01-19T08:06:01.700Z,16.00
2019-01-19T08:07:01.696Z,19.20
2019-01-19T08:08:01.687Z,20.40
2019-01-19T08:09:01.669Z,17.40
2019-01-19T08:10:01.662Z,18.10
2019-01-19T08:11:02.838Z,18.50
2019-01-19T08:12:02.597Z,22.10
2019-01-19T08:13:04.253Z,20.90
2019-01-19T08:14:01.616Z,18.30
2019-01-19T08:15:01.599Z,17.00
2019-01-19T08:16:01.585Z,19.10
2019-01-19T08:17:01.577Z,18.10
2019-01-19T08:18:01.730Z,21.20
2019-01-19T08:19:01.552Z,21.90
2019-01-19T08:20:01.537Z,20.10
2019-01-19T08:21:01.526Z,23.80
2019-01-19T08:22:01.522Z,20.90
2019-01-19T08:23:01.515Z,24.20
2019-01-19T08:24:01.490Z,25.30
2019-01-19T08:25:01.480Z,24.40
2019-01-19T08:26:01.465Z,23.30
2019-01-19T08:27:01.457Z,21.60
2019-01-19T08:28:01.475Z,19.60
2019-01-19T08:29:01.429Z,22.10
2019-01-19T08:30:01.432Z,24.80
2019-01-19T08:31:01.412Z,22.40
2019-01-19T08:32:01.393Z,23.40
2019-01-19T08:33:01.382Z,22.90
2019-01-19T08:34:01.380Z,25.30
2019-01-19T08:35:01.359Z,24.20
2019-01-19T08:36:01.341Z,25.50
2019-01-19T08:37:01.333Z,23.90
2019-01-19T08:38:01.321Z,23.20
2019-01-19T08:39:01.308Z,25.00
2019-01-19T08:40:01.301Z,24.60
2019-01-19T08:41:01.287Z,24.00
2019-01-19T08:42:01.277Z,25.10
2019-01-19T08:43:01.269Z,27.80
2019-01-19T08:44:01.249Z,29.40
2019-01-19T08:45:01.240Z,28.80
2019-01-19T08:46:02.214Z,27.60
2019-01-19T08:47:01.214Z,27.70
2019-01-19T08:48:01.202Z,23.70
2019-01-19T08:49:01.190Z,26.40
2019-01-19T08:50:01.183Z,28.10
2019-01-19T08:51:01.214Z,29.60
2019-01-19T08:52:01.154Z,28.10
2019-01-19T08:53:01.140Z,29.60
2019-01-19T08:54:01.129Z,24.60
2019-01-19T08:55:01.119Z,26.50
2019-01-19T08:56:01.107Z,26.80
2019-01-19T08:57:01.095Z,27.20
2019-01-19T08:58:01.085Z,27.00
2019-01-19T08:59:01.071Z,26.50
2019-01-19T09:00:01.060Z,26.60
2019-01-19T09:01:01.050Z,25.60
2019-01-19T09:02:01.034Z,26.50
2019-01-19T09:03:01.025Z,27.00
2019-01-19T09:04:01.014Z,28.20
2019-01-19T09:05:01.017Z,29.30
2019-01-19T09:06:00.989Z,29.40
2019-01-19T09:07:00.977Z,26.40
2019-01-19T09:08:00.966Z,28.60
2019-01-19T09:09:00.948Z,25.80
2019-01-19T09:10:00.938Z,26.50
2019-01-19T09:11:00.967Z,25.90
2019-01-19T09:12:00.915Z,27.70
2019-01-19T09:13:00.906Z,29.20
2019-01-19T09:14:00.894Z,27.30
2019-01-19T09:15:00.883Z,27.10
2019-01-19T09:16:00.871Z,28.50
2019-01-19T09:17:00.857Z,26.20
2019-01-19T09:18:00.850Z,26.60
2019-01-19T09:19:00.838Z,25.70
2019-01-19T09:20:00.825Z,27.80
2019-01-19T09:21:00.809Z,27.80
2019-01-19T09:22:00.799Z,26.70
2019-01-19T09:23:00.787Z,30.60
2019-01-19T09:24:00.776Z,27.20
2019-01-19T09:25:00.778Z,25.90
2019-01-19T09:26:00.754Z,28.20
2019-01-19T09:27:00.749Z,28.90
2019-01-19T09:28:00.731Z,28.00
2019-01-19T09:29:00.723Z,28.10
2019-01-19T09:30:00.707Z,29.80
2019-01-19T09:31:00.698Z,27.00
2019-01-19T09:32:00.684Z,27.00
2019-01-19T09:33:00.672Z,27.30
2019-01-19T09:34:00.663Z,28.30
2019-01-19T09:35:00.652Z,28.10
2019-01-19T09:36:00.638Z,29.70
2019-01-19T09:37:00.627Z,30.40
2019-01-19T09:38:00.616Z,27.10
2019-01-19T09:39:00.607Z,28.60
2019-01-19T09:40:00.593Z,27.20
2019-01-19T09:41:00.582Z,30.80
2019-01-19T09:42:00.569Z,27.10
2019-01-19T09:43:00.558Z,27.30
2019-01-19T09:44:00.552Z,27.80
2019-01-19T09:45:00.542Z,26.40
2019-01-19T09:46:00.522Z,26.30
2019-01-19T09:47:00.510Z,26.30
2019-01-19T09:48:00.560Z,28.80
2019-01-19T09:49:00.491Z,26.30
2019-01-19T09:50:00.483Z,26.30
2019-01-19T09:51:00.467Z,25.40
2019-01-19T09:52:00.455Z,24.90
2019-01-19T09:53:00.445Z,26.80
2019-01-19T09:54:00.433Z,25.50
2019-01-19T09:55:00.425Z,26.40
2019-01-19T09:56:00.413Z,26.20
2019-01-19T09:57:00.400Z,26.90
2019-01-19T09:58:00.385Z,27.50
2019-01-19T09:59:00.374Z,29.00
2019-01-19T10:00:00.379Z,27.50
2019-01-19T10:01:00.355Z,25.00
2019-01-19T10:02:00.346Z,27.40
2019-01-19T10:03:00.337Z,28.20
2019-01-19T10:04:00.321Z,28.30
2019-01-19T10:05:00.307Z,27.50
2019-01-19T10:06:00.300Z,27.60
2019-01-19T10:07:00.287Z,23.80
2019-01-19T10:08:00.287Z,25.90
2019-01-19T10:09:00.258Z,24.20
2019-01-19T10:10:00.253Z,26.70
2019-01-19T10:11:00.243Z,26.20
2019-01-19T10:12:00.230Z,24.60
2019-01-19T10:13:00.219Z,25.30
2019-01-19T10:14:00.211Z,25.70
2019-01-19T10:15:00.199Z,27.10
2019-01-19T10:16:00.187Z,25.80
2019-01-19T10:17:00.176Z,25.30
2019-01-19T10:18:00.165Z,26.50
2019-01-19T10:19:00.164Z,26.70
2019-01-19T10:20:00.167Z,25.10
2019-01-19T10:21:00.138Z,27.00
2019-01-19T10:22:00.121Z,26.00
2019-01-19T10:23:00.111Z,28.00
2019-01-19T10:24:00.101Z,27.30
2019-01-19T10:25:00.098Z,26.60
2019-01-19T10:26:00.080Z,25.30
2019-01-19T10:27:00.079Z,26.20
2019-01-19T10:28:00.063Z,26.10
2019-01-19T10:29:00.043Z,24.90
2019-01-19T10:30:00.033Z,24.40
2019-01-19T10:31:00.032Z,27.10
2019-01-19T10:32:00.020Z,24.30
2019-01-19T10:32:59.999Z,26.40
2019-01-19T10:33:59.991Z,23.10
2019-01-19T10:34:59.983Z,26.80
2019-01-19T10:35:59.967Z,28.00
2019-01-19T10:36:59.956Z,27.10
2019-01-19T10:37:59.947Z,25.00
2019-01-19T10:38:59.934Z,26.40
2019-01-19T10:39:59.923Z,28.70
2019-01-19T10:40:59.913Z,26.70
2019-01-19T10:41:59.901Z,26.30
2019-01-19T10:42:59.892Z,25.00
2019-01-19T10:43:59.885Z,26.30
2019-01-19T10:44:59.869Z,26.20
2019-01-19T10:45:59.914Z,25.70
2019-01-19T10:46:59.851Z,25.30
2019-01-19T10:47:59.836Z,25.70
2019-01-19T10:49:00.212Z,24.10
2019-01-19T10:49:59.816Z,29.20
2019-01-19T10:50:59.807Z,24.60
2019-01-19T10:51:59.793Z,26.00
2019-01-19T10:52:59.782Z,25.50
2019-01-19T10:53:59.785Z,25.30
2019-01-19T10:54:59.765Z,24.90
2019-01-19T10:55:59.751Z,26.00
2019-01-19T10:56:59.737Z,27.10
2019-01-19T10:57:59.725Z,24.90
2019-01-19T10:58:59.720Z,25.60
2019-01-19T10:59:59.707Z,23.20
2019-01-19T11:00:59.704Z,24.50
2019-01-19T11:01:59.684Z,25.80
2019-01-19T11:02:59.668Z,24.60
2019-01-19T11:03:59.657Z,25.20
2019-01-19T11:04:59.656Z,27.20
2019-01-19T11:05:59.639Z,24.50
2019-01-19T11:06:59.626Z,25.90
2019-01-19T11:08:03.843Z,23.80
2019-01-19T11:08:59.611Z,22.50
2019-01-19T11:09:59.606Z,25.50
2019-01-19T11:10:59.588Z,23.40
2019-01-19T11:11:59.578Z,22.80
2019-01-19T11:12:59.562Z,25.40
2019-01-19T11:13:59.559Z,23.60
2019-01-19T11:14:59.546Z,24.00
2019-01-19T11:15:59.533Z,24.70
2019-01-19T11:16:59.525Z,24.70
2019-01-19T11:17:59.510Z,23.90
2019-01-19T11:18:59.503Z,24.10
2019-01-19T11:19:59.494Z,24.70
2019-01-19T11:20:59.483Z,26.00
2019-01-19T11:21:59.471Z,23.30
2019-01-19T11:22:59.463Z,23.70
2019-01-19T11:23:59.446Z,21.40
2019-01-19T11:24:59.442Z,21.80
2019-01-19T11:25:59.429Z,24.60
2019-01-19T11:26:59.416Z,23.50
2019-01-19T11:27:59.409Z,23.30
2019-01-19T11:28:59.395Z,24.50
2019-01-19T11:29:59.387Z,26.80
2019-01-19T11:30:59.376Z,23.20
2019-01-19T11:31:59.370Z,24.80
2019-01-19T11:32:59.355Z,23.10
2019-01-19T11:33:59.344Z,24.90
2019-01-19T11:34:59.334Z,25.50
2019-01-19T11:35:59.324Z,22.80
2019-01-19T11:36:59.313Z,23.10
2019-01-19T11:37:59.307Z,22.30
2019-01-19T11:38:59.291Z,23.80
2019-01-19T11:39:59.283Z,23.80
2019-01-19T11:40:59.272Z,24.80
2019-01-19T11:41:59.259Z,24.60
2019-01-19T11:42:59.251Z,20.70
2019-01-19T11:43:59.240Z,23.50
2019-01-19T11:44:59.234Z,22.30
2019-01-19T11:45:59.220Z,21.60
2019-01-19T11:46:59.213Z,22.70
2019-01-19T11:47:59.206Z,23.90
2019-01-19T11:48:59.190Z,21.30
2019-01-19T11:49:59.178Z,23.20
2019-01-19T11:50:59.170Z,20.40
2019-01-19T11:51:59.158Z,22.20
2019-01-19T11:52:59.148Z,21.70
2019-01-19T11:53:59.137Z,20.50
2019-01-19T11:54:59.127Z,21.50
2019-01-19T11:55:59.118Z,20.50
2019-01-19T11:56:59.144Z,20.00
2019-01-19T11:57:59.096Z,22.50
2019-01-19T11:58:59.088Z,20.30
2019-01-19T11:59:59.075Z,22.10
2019-01-19T12:00:59.065Z,19.80
2019-01-19T12:01:59.055Z,21.10
2019-01-19T12:02:59.045Z,20.70
2019-01-19T12:03:59.052Z,19.30
2019-01-19T12:04:59.026Z,21.90
2019-01-19T12:05:59.017Z,22.40
2019-01-19T12:06:59.006Z,20.10
2019-01-19T12:07:58.992Z,22.90
2019-01-19T12:08:58.982Z,20.50
2019-01-19T12:09:58.988Z,21.20
2019-01-19T12:10:58.962Z,21.00
2019-01-19T12:11:58.949Z,23.70
2019-01-19T12:12:58.942Z,21.60
2019-01-19T12:14:00.495Z,21.50
2019-01-19T12:14:58.920Z,20.50
2019-01-19T12:15:58.925Z,19.60
2019-01-19T12:16:58.913Z,20.90
2019-01-19T12:17:58.896Z,20.70
2019-01-19T12:18:58.886Z,19.90
2019-01-19T12:19:58.871Z,17.00
2019-01-19T12:20:58.862Z,20.70
2019-01-19T12:21:58.853Z,19.20
2019-01-19T12:22:58.840Z,20.70
2019-01-19T12:23:58.832Z,19.20
2019-01-19T12:24:58.820Z,20.90
2019-01-19T12:25:58.810Z,18.90
2019-01-19T12:26:58.806Z,19.80
2019-01-19T12:27:58.788Z,17.20
2019-01-19T12:28:58.992Z,20.40
2019-01-19T12:29:58.768Z,20.00
2019-01-19T12:30:58.760Z,20.20
2019-01-19T12:31:58.747Z,19.70
2019-01-19T12:32:58.736Z,20.20
2019-01-19T12:33:58.729Z,20.40
2019-01-19T12:34:58.718Z,20.60
2019-01-19T12:35:58.710Z,20.20
2019-01-19T12:36:58.708Z,19.90
2019-01-19T12:37:58.693Z,19.40
2019-01-19T12:38:58.677Z,21.10
2019-01-19T12:39:58.667Z,19.60
2019-01-19T12:40:58.661Z,20.60
2019-01-19T12:41:58.649Z,21.40
2019-01-19T12:42:58.643Z,20.20
2019-01-19T12:43:58.628Z,20.90
2019-01-19T12:44:58.622Z,20.50
2019-01-19T12:45:58.610Z,21.00
2019-01-19T12:46:58.600Z,19.50
2019-01-19T12:47:58.590Z,17.80
2019-01-19T12:48:58.588Z,18.40
2019-01-19T12:49:58.574Z,20.90
2019-01-19T12:50:58.562Z,21.60
2019-01-19T12:51:58.540Z,17.80
2019-01-19T12:52:58.538Z,18.50
2019-01-19T12:53:58.525Z,19.10
2019-01-19T12:54:58.527Z,17.40
2019-01-19T12:55:58.528Z,17.80
2019-01-19T12:56:58.541Z,21.10
2019-01-19T12:57:58.485Z,18.00
2019-01-19T12:58:58.525Z,17.10
2019-01-19T12:59:59.306Z,19.10